Weather History for Mammoth, CA

Change the Weather History Date:

Friday, June 14, 2013

  Actual Average Record
Temperature  
Mean Temperature 59 °F -  
Max Temperature 77 °F 71 °F 87 °F (2000)
Min Temperature 41 °F 59 °F 33 °F (2014)
Degree Days  
Heating Degree Days 6    
Growing Degree Days 9 (Base 50)    
Moisture  
Dew Point 19 °F    
Average Humidity 24    
Maximum Humidity 42    
Minimum Humidity 11    
Precipitation  
Precipitation 0.00 in - - ()
Sea Level Pressure  
Sea Level Pressure 30.16 in    
Wind  
Wind Speed 10 mph (West)    
Max Wind Speed 20 mph    
Max Gust Speed 29 mph    
Visibility 10 miles    
Events      
Averages and records for this station are not official NWS values.
T = Trace of Precipitation, MM = Missing Value Source: NWS Daily Summary

Daily Weather History Graph

Daily Weather History Graph

Search for Another Location

Airport:

Trip Planner

Search our weather history database for the weather conditions in past years. The results will help you decide how hot, cold, wet, or windy it might be!

Date:

Astronomy

Jun. 14, 2013 Rise Set
Actual Time 5:33 AM PDT 8:18 PM PDT
Civil Twilight 5:02 AM PDT 8:49 PM PDT
Nautical Twilight 4:23 AM PDT 9:28 PM PDT
Astronomical Twilight 3:39 AM PDT 10:12 PM PDT
Moon 11:07 AM PDT (6/14) No Moon Set
Length of Visible Light 15h 47m
Length of Day
14h 44m
Waxing Crescent, 31% of the Moon is Illuminated
Jun 14
Waxing Crescent
Jun 16
First Quarter
Jun 23
Full
Jun 29
Last Quarter
Jul 8
New

Hourly Weather History & Observations

Time (PDT) Temp. Windchill Dew Point Humidity Pressure Visibility Wind Dir Wind Speed Gust Speed Precip Events Conditions
12:15 AM 44.6 °F 38.4 °F 17.6 °F 34% 30.22 in 10.0 mi West 12.7 mph - N/A   Clear
12:35 AM 42.8 °F 40.1 °F 19.4 °F 39% 30.22 in 10.0 mi WNW 4.6 mph - N/A   Clear
12:55 AM 46.4 °F 40.7 °F 17.6 °F 32% 30.22 in 10.0 mi West 12.7 mph - N/A   Clear
1:15 AM 48.2 °F - 17.6 °F 30% 30.22 in 10.0 mi West 11.5 mph - N/A   Clear
1:35 AM 46.4 °F 41.1 °F 17.6 °F 32% 30.23 in 10.0 mi West 11.5 mph - N/A   Clear
1:55 AM 41.0 °F 37.1 °F 17.6 °F 39% 30.23 in 10.0 mi NW 5.8 mph - N/A   Clear
2:15 AM 41.0 °F 35.8 °F 17.6 °F 39% 30.22 in 10.0 mi West 8.1 mph - N/A   Clear
2:35 AM 41.0 °F 35.2 °F 15.8 °F 36% 30.22 in 10.0 mi West 9.2 mph - N/A   Clear
2:55 AM 42.8 °F 36.6 °F 15.8 °F 34% 30.22 in 10.0 mi West 11.5 mph - N/A   Clear
3:15 AM 41.0 °F 34.7 °F 15.8 °F 36% 30.22 in 10.0 mi West 10.4 mph - N/A   Clear
3:35 AM 42.8 °F 36.2 °F 15.8 °F 34% 30.22 in 10.0 mi West 12.7 mph - N/A   Clear
3:55 AM 41.0 °F 34.3 °F 14.0 °F 33% 30.22 in 10.0 mi West 11.5 mph - N/A   Clear
4:15 AM 42.8 °F 35.4 °F 14.0 °F 31% 30.22 in 10.0 mi West 15.0 mph - N/A   Clear
4:35 AM 41.0 °F 33.9 °F 14.0 °F 33% 30.22 in 10.0 mi West 12.7 mph 16.1 mph N/A   Clear
4:55 AM 41.0 °F 34.7 °F 15.8 °F 36% 30.22 in 10.0 mi West 10.4 mph - N/A   Clear
5:15 AM 42.8 °F 36.2 °F 17.6 °F 36% 30.22 in 10.0 mi West 12.7 mph - N/A   Clear
5:35 AM 41.0 °F 33.9 °F 19.4 °F 42% 30.23 in 10.0 mi West 12.7 mph - N/A   Clear
5:55 AM 41.0 °F 34.7 °F 19.4 °F 42% 30.23 in 10.0 mi West 10.4 mph - N/A   Clear
6:15 AM 41.0 °F 35.2 °F 19.4 °F 42% 30.23 in 10.0 mi West 9.2 mph - N/A   Clear
6:35 AM 44.6 °F 38.8 °F 19.4 °F 37% 30.23 in 10.0 mi WNW 11.5 mph - N/A   Clear
6:55 AM 46.4 °F 41.1 °F 21.2 °F 37% 30.23 in 10.0 mi West 11.5 mph - N/A   Clear
7:15 AM 48.2 °F - 21.2 °F 34% 30.23 in 10.0 mi West 12.7 mph - N/A   Clear
7:35 AM 50.0 °F - 21.2 °F 32% 30.23 in 10.0 mi West 12.7 mph 18.4 mph N/A   Clear
7:55 AM 51.8 °F - 21.2 °F 30% 30.23 in 10.0 mi WNW 10.4 mph - N/A   Clear
8:15 AM 51.8 °F - 21.2 °F 30% 30.23 in 10.0 mi West 12.7 mph 16.1 mph N/A   Clear
8:35 AM 53.6 °F - 21.2 °F 28% 30.22 in 10.0 mi West 9.2 mph - N/A   Clear
8:55 AM 55.4 °F - 21.2 °F 26% 30.22 in 10.0 mi West 6.9 mph - N/A   Clear
9:15 AM 57.2 °F - 21.2 °F 25% 30.22 in 10.0 mi Calm Calm - N/A   Clear
9:35 AM 57.2 °F - 21.2 °F 25% 30.21 in 10.0 mi West 8.1 mph - N/A   Clear
9:55 AM 59.0 °F - 19.4 °F 22% 30.20 in 10.0 mi SE 5.8 mph - N/A   Clear
10:15 AM 59.0 °F - 19.4 °F 22% 30.20 in 10.0 mi WSW 4.6 mph - N/A   Clear
10:35 AM 60.8 °F - 19.4 °F 20% 30.19 in 10.0 mi Calm Calm - N/A   Clear
10:55 AM 64.4 °F - 19.4 °F 18% 30.19 in 10.0 mi East 8.1 mph - N/A   Clear
11:15 AM 64.4 °F - 17.6 °F 16% 30.19 in 10.0 mi Calm Calm - N/A   Clear
11:35 AM 64.4 °F - 17.6 °F 16% 30.18 in 10.0 mi South 3.5 mph - N/A   Clear
11:55 AM 66.2 °F - 17.6 °F 15% 30.17 in 10.0 mi SSE 6.9 mph - N/A   Clear
12:15 PM 68.0 °F - 15.8 °F 13% 30.17 in 10.0 mi ESE 4.6 mph - N/A   Clear
12:35 PM 68.0 °F - 15.8 °F 13% 30.16 in 10.0 mi SSE 8.1 mph 18.4 mph N/A   Clear
12:55 PM 69.8 °F - 15.8 °F 13% 30.16 in 10.0 mi East 10.4 mph - N/A   Clear
1:15 PM 71.6 °F - 15.8 °F 12% 30.15 in 10.0 mi East 3.5 mph - N/A   Clear
1:35 PM 71.6 °F - 17.6 °F 13% 30.14 in 10.0 mi ESE 10.4 mph - N/A   Clear
1:55 PM 73.4 °F - 17.6 °F 12% 30.13 in 10.0 mi ESE 12.7 mph 17.3 mph N/A   Clear
2:15 PM 75.2 °F - 17.6 °F 11% 30.12 in 10.0 mi ESE 9.2 mph 17.3 mph N/A   Clear
2:35 PM 73.4 °F - 17.6 °F 12% 30.12 in 10.0 mi SE 9.2 mph - N/A   Clear
2:55 PM 75.2 °F - 17.6 °F 11% 30.11 in 10.0 mi SSE 9.2 mph - N/A   Clear
3:15 PM 75.2 °F - 15.8 °F 11% 30.10 in 10.0 mi SE 8.1 mph - N/A   Clear
3:35 PM 75.2 °F - 17.6 °F 11% 30.10 in 10.0 mi South 3.5 mph - N/A   Clear
3:55 PM 77.0 °F - 17.6 °F 11% 30.10 in 10.0 mi SW 6.9 mph - N/A   Clear
4:15 PM 75.2 °F - 17.6 °F 11% 30.09 in 10.0 mi West 10.4 mph 20.7 mph N/A   Clear
4:35 PM 75.2 °F - 19.4 °F 12% 30.09 in 10.0 mi WNW 16.1 mph 27.6 mph N/A   Clear
4:55 PM 73.4 °F - 19.4 °F 13% 30.08 in 10.0 mi WNW 12.7 mph 27.6 mph N/A   Clear
5:15 PM 73.4 °F - 19.4 °F 13% 30.08 in 10.0 mi NW 17.3 mph 26.5 mph N/A   Clear
5:35 PM 71.6 °F - 19.4 °F 14% 30.08 in 10.0 mi NW 17.3 mph 28.8 mph N/A   Clear
5:55 PM 73.4 °F - 21.2 °F 14% 30.07 in 10.0 mi WNW 11.5 mph 24.2 mph N/A   Clear
6:15 PM 71.6 °F - 21.2 °F 15% 30.07 in 10.0 mi NNW 15.0 mph 25.3 mph N/A   Clear
6:35 PM 71.6 °F - 23.0 °F 16% 30.07 in 10.0 mi NW 19.6 mph 24.2 mph N/A   Clear
6:55 PM 69.8 °F - 23.0 °F 17% 30.08 in 10.0 mi WNW 16.1 mph 24.2 mph N/A   Clear
7:15 PM 68.0 °F - 21.2 °F 17% 30.08 in 10.0 mi NNW 9.2 mph 25.3 mph N/A   Clear
7:35 PM 66.2 °F - 23.0 °F 19% 30.09 in 10.0 mi NW 8.1 mph - N/A   Clear
7:55 PM 64.4 °F - 23.0 °F 21% 30.09 in 10.0 mi NW 8.1 mph - N/A   Clear
8:15 PM 62.6 °F - 23.0 °F 22% 30.09 in 10.0 mi NW 6.9 mph - N/A   Clear
8:35 PM 60.8 °F - 23.0 °F 23% 30.09 in 10.0 mi North 3.5 mph - N/A   Clear
8:55 PM 60.8 °F - 23.0 °F 23% 30.10 in 10.0 mi WNW 8.1 mph - N/A   Clear
9:15 PM 59.0 °F - 23.0 °F 25% 30.11 in 10.0 mi NW 4.6 mph - N/A   Clear
9:35 PM 60.8 °F - 23.0 °F 23% 30.11 in 10.0 mi West 3.5 mph - N/A   Clear
9:55 PM 59.0 °F - 21.2 °F 23% 30.12 in 10.0 mi West 8.1 mph 18.4 mph N/A   Clear
10:15 PM 59.0 °F - 21.2 °F 23% 30.12 in 10.0 mi West 11.5 mph 20.7 mph N/A   Clear
10:35 PM 59.0 °F - 21.2 °F 23% 30.13 in 10.0 mi West 6.9 mph - N/A   Clear
10:55 PM 57.2 °F - 21.2 °F 25% 30.13 in 10.0 mi West 8.1 mph - N/A   Clear
11:15 PM 57.2 °F - 21.2 °F 25% 30.12 in 10.0 mi West 10.4 mph 19.6 mph N/A   Clear
11:35 PM 55.4 °F - 21.2 °F 26% 30.13 in 10.0 mi West 6.9 mph - N/A   Clear
11:55 PM 55.4 °F - 21.2 °F 26% 30.13 in 10.0 mi West 6.9 mph - N/A   Clear